Data for 02/08/2006

Time Sea-Level Adjusted Pressure Absolute Pressure Temperature Relative Humidity Dew Point   
(mb) (inHg) (mb) (inHg) (C) (F) (%) (C) (F)
00:05 1025 30.27 855 25.25 0.1 32.1 56 -7.7 18.1
00:10 1025 30.27 854 25.22 -0.4 31.3 56 -8.2 17.3
00:15 1025 30.27 854 25.22 -0.5 31.1 57 -7.9 17.8
00:20 1025 30.27 854 25.22 -0.7 30.8 59 -7.7 18.1
00:25 1025 30.27 854 25.22 -0.9 30.4 59 -7.9 17.8
00:30 1025 30.27 854 25.22 -0.7 30.7 57 -8.1 17.3
00:35 1025 30.27 854 25.22 -0 32 55 -7.9 17.7
00:40 1025 30.27 854 25.22 -0 31.9 56 -7.7 18.1
00:45 1025 30.27 854 25.22 -0.6 31 59 -7.7 18.2
00:50 1025 30.27 854 25.22 -0.9 30.5 58 -8.2 17.3
00:55 1025 30.27 854 25.22 -0.2 31.6 56 -7.9 17.8
01:00 1025 30.27 854 25.22 0.2 32.3 55 -7.9 17.7
01:05 1025 30.27 854 25.22 0.2 32.4 56 -7.7 18.2
01:10 1025 30.27 854 25.22 -0.2 31.6 56 -7.9 17.7
01:15 1025 30.27 854 25.22 -0.2 31.6 55 -8.3 17.1
01:20 1025 30.27 854 25.22 -0.6 30.9 55 -8.6 16.5
01:25 1025 30.27 854 25.22 -1.1 30 57 -8.6 16.4
01:30 1025 30.27 854 25.22 -0.9 30.4 56 -8.6 16.5
01:35 1025 30.27 854 25.22 -0.1 31.8 53 -8.5 16.7
01:40 1025 30.27 854 25.22 -0.2 31.7 54 -8.3 17
01:45 1025 30.27 854 25.22 -0.4 31.3 56 -8.2 17.2
01:50 1025 30.27 854 25.22 -0.5 31.2 55 -8.5 16.6
01:55 1024 30.24 854 25.22 -0.4 31.2 54 -8.6 16.4
02:00 1024 30.24 854 25.22 -0.3 31.5 53 -8.7 16.4
02:05 1024 30.24 854 25.22 -0.7 30.8 56 -8.4 16.8
02:10 1024 30.24 853 25.19 -1.7 28.9 59 -8.6 16.5
02:15 1024 30.24 854 25.22 -1.4 29.5 57 -8.8 16.2
02:20 1024 30.24 853 25.19 -0.9 30.3 56 -8.6 16.5
02:25 1024 30.24 853 25.19 -0.8 30.5 57 -8.3 17
02:30 1024 30.24 853 25.19 -0.9 30.3 58 -8.1 17.3
02:35 1024 30.24 853 25.19 -1.3 29.6 59 -8.3 17.1
02:40 1024 30.24 853 25.19 -1.5 29.4 60 -8.2 17.2
02:45 1024 30.24 853 25.19 -1.4 29.5 60 -8.1 17.4
02:50 1024 30.24 853 25.19 -1.4 29.6 60 -8.2 17.2
02:55 1024 30.24 853 25.19 -1.1 30 58 -8.3 17.1
03:00 1024 30.24 853 25.19 -1.2 29.9 59 -8.3 17.1
03:05 1024 30.24 853 25.19 -1.2 29.9 58 -8.4 16.8
03:10 1024 30.24 853 25.19 -1.1 30.1 57 -8.6 16.6
03:15 1024 30.24 853 25.19 -1.1 30.1 57 -8.6 16.4
03:20 1024 30.24 853 25.19 -0.8 30.6 56 -8.5 16.8
03:25 1024 30.24 853 25.19 -0.7 30.7 56 -8.4 16.8
03:30 1024 30.24 853 25.19 -0.5 31.2 55 -8.5 16.7
03:35 1024 30.24 853 25.19 -0.6 30.8 56 -8.5 16.7
03:40 1024 30.24 853 25.19 -0.8 30.5 56 -8.6 16.6
03:45 1024 30.24 853 25.19 -0.8 30.5 55 -8.7 16.3
03:50 1024 30.24 853 25.19 -1.2 29.9 56 -8.8 16.2
03:55 1024 30.24 853 25.19 -1.2 29.9 54 -9.3 15.2
04:00 1024 30.24 853 25.19 -0.8 30.6 53 -9.3 15.3
04:05 1024 30.24 853 25.19 -0.8 30.6 53 -9.1 15.7
04:10 1024 30.24 853 25.19 -0.6 30.8 52 -9.3 15.2
04:15 1024 30.24 853 25.19 -1.2 29.9 54 -9.3 15.2
04:20 1024 30.24 853 25.19 -1.9 28.7 58 -9.1 15.7
04:25 1024 30.24 853 25.19 -2.2 28.1 57 -9.6 14.7
04:30 1024 30.24 853 25.19 -2 28.4 57 -9.5 15
04:35 1024 30.24 853 25.19 -1.4 29.5 53 -9.9 14.2
04:40 1024 30.24 853 25.19 -0.2 31.7 50 -9.3 15.2
04:45 1024 30.24 853 25.19 0.1 32.1 50 -9 15.7
04:50 1024 30.24 853 25.19 -0.2 31.6 51 -9.3 15.3
04:55 1024 30.24 853 25.19 -0.2 31.7 51 -9.2 15.4
05:00 1024 30.24 853 25.19 0.1 32.2 50 -9.1 15.7
05:05 1024 30.24 853 25.19 0.2 32.3 50 -9 15.8
05:10 1024 30.24 853 25.19 -0.2 31.6 52 -9 15.7
05:15 1024 30.24 853 25.19 -0.4 31.3 51 -9.3 15.2
05:20 1024 30.24 853 25.19 -0.7 30.7 52 -9.5 14.9
05:25 1024 30.24 853 25.19 -1.1 30.1 53 -9.4 15.1
05:30 1024 30.24 853 25.19 -1.4 29.5 55 -9.4 15.1
05:35 1024 30.24 853 25.19 -1.8 28.7 57 -9.2 15.5
05:40 1024 30.24 853 25.19 -2.1 28.2 59 -9.1 15.6
05:45 1024 30.24 853 25.19 -2.3 27.9 60 -9.1 15.6
05:50 1024 30.24 853 25.19 -2.3 27.9 60 -9.1 15.7
05:55 1024 30.24 853 25.19 -2.4 27.6 60 -9.1 15.7
06:00 1024 30.24 853 25.19 -2.5 27.5 62 -8.9 16
06:05 1024 30.24 853 25.19 -2.6 27.3 62 -9 15.8
06:10 1024 30.24 853 25.19 -2.4 27.6 62 -8.8 16.2
06:15 1024 30.24 853 25.19 -2.3 27.9 61 -8.8 16.2
06:20 1024 30.24 853 25.19 -2 28.4 61 -8.6 16.6
06:25 1024 30.24 853 25.19 -1.9 28.6 60 -8.7 16.3
06:30 1024 30.24 853 25.19 -1.7 29 58 -8.9 16.1
06:35 1024 30.24 853 25.19 -1.8 28.8 59 -8.7 16.3
06:40 1024 30.24 853 25.19 -1.9 28.5 60 -8.8 16.2
06:45 1024 30.24 853 25.19 -1.7 29 57 -9.1 15.6
06:50 1024 30.24 853 25.19 -1.1 30 56 -8.9 16
06:55 1024 30.24 853 25.19 -1.4 29.5 57 -8.9 16
07:00 1024 30.24 853 25.19 -1.7 28.9 58 -9 15.9
07:05 1024 30.24 853 25.19 -1.9 28.6 59 -8.9 16
07:10 1024 30.24 853 25.19 -1.9 28.6 57 -9.3 15.3
07:15 1024 30.24 853 25.19 -1.7 28.9 56 -9.3 15.3
07:20 1024 30.24 853 25.19 -1.2 29.8 55 -9.1 15.6
07:25 1024 30.24 853 25.19 -1.3 29.7 57 -8.9 16
07:30 1024 30.24 853 25.19 -1.6 29.1 58 -8.8 16.2
07:35 1024 30.24 853 25.19 -1.7 28.9 60 -8.6 16.6
07:40 1024 30.24 853 25.19 -1.3 29.6 60 -8.2 17.2
07:45 1024 30.24 853 25.19 -0.8 30.5 58 -8.2 17.3
07:50 1024 30.24 853 25.19 -1.4 29.6 60 -8.2 17.2
07:55 1024 30.24 853 25.19 -1.4 29.4 59 -8.5 16.8
08:00 1024 30.24 853 25.19 -1.1 29.9 60 -8 17.5
08:05 1024 30.24 853 25.19 -1.3 29.7 60 -8.2 17.3
08:10 1024 30.24 853 25.19 -1.1 29.9 58 -8.4 16.9
08:15 1024 30.24 853 25.19 -0.7 30.8 52 -9.3 15.3
08:20 1024 30.24 853 25.19 -0.3 31.5 50 -9.4 15.1
08:25 1024 30.24 853 25.19 -0 31.9 50 -9.4 15.1
08:30 1024 30.24 853 25.19 0.6 33.1 46 -9.7 14.5
08:35 1024 30.24 853 25.19 0.8 33.5 45 -9.7 14.6
08:40 1024 30.24 853 25.19 0.9 33.5 45 -9.8 14.4
08:45 1024 30.24 853 25.19 0.7 33.2 47 -9.4 15.1
08:50 1024 30.24 853 25.19 0.6 33 49 -9 15.8
08:55 1024 30.24 853 25.19 0.5 32.9 49 -9 15.8
09:00 1024 30.24 853 25.19 1.2 34.2 47 -8.8 16.1
09:05 1024 30.24 853 25.19 1.8 35.2 45 -8.9 15.9
09:10 1024 30.24 853 25.19 2 35.6 44 -9 15.9
09:15 1024 30.24 853 25.19 1.9 35.5 46 -8.4 16.8
09:20 1024 30.24 853 25.19 2.2 35.9 44 -8.9 16
09:25 1024 30.24 853 25.19 2.4 36.3 44 -8.5 16.6
09:30 1024 30.24 853 25.19 2.1 35.7 45 -8.8 16.2
09:35 1024 30.24 853 25.19 2.1 35.8 46 -8.4 17
09:40 1024 30.24 853 25.19 2.3 36.2 45 -8.5 16.7
09:45 1024 30.24 853 25.19 2.5 36.5 44 -8.6 16.6
09:50 1024 30.24 853 25.19 3 37.4 42 -8.8 16.2
09:55 1024 30.24 853 25.19 3.3 38 43 -8.1 17.4
10:00 1024 30.24 853 25.19 3 37.4 43 -8.4 16.9
10:05 1024 30.24 853 25.19 3.4 38.1 42 -8.3 17.1
10:10 1024 30.24 853 25.19 4.2 39.6 39 -8.6 16.5
10:15 1024 30.24 853 25.19 4.8 40.6 36 -8.9 16
10:20 1024 30.24 853 25.19 4.8 40.7 36 -9.1 15.6
10:25 1023 30.21 853 25.19 5.3 41.5 35 -8.9 15.9
10:30 1023 30.21 852 25.16 4.5 40.1 39 -8.4 16.8
10:35 1023 30.21 852 25.16 3.5 38.3 39 -9.1 15.7
10:40 1023 30.21 852 25.16 3.7 38.6 39 -9 15.8
10:45 1023 30.21 852 25.16 4.7 40.4 36 -9.3 15.3
10:50 1023 30.21 852 25.16 5.6 42.1 34 -9 15.9
10:55 1023 30.21 852 25.16 6.1 42.9 33 -9 15.9
11:00 1023 30.21 852 25.16 6.6 43.8 34 -8.3 17.1
11:05 1023 30.21 852 25.16 6.7 44 34 -8.1 17.4
11:10 1023 30.21 852 25.16 5.9 42.7 35 -8.4 16.8
11:15 1023 30.21 852 25.16 5.4 41.6 35 -8.8 16.1
11:20 1023 30.21 852 25.16 4.8 40.7 35 -9.5 14.9
11:25 1023 30.21 852 25.16 4.9 40.8 34 -9.8 14.3
11:30 1023 30.21 852 25.16 5.2 41.3 34 -9.5 14.9
11:35 1023 30.21 852 25.16 5 41 35 -9.4 15.1
11:40 1023 30.21 852 25.16 4.9 40.9 34 -9.7 14.5
11:45 1023 30.21 852 25.16 5 40.9 34 -9.5 14.9
11:50 1023 30.21 852 25.16 5.8 42.4 33 -9.3 15.2
11:55 1023 30.21 852 25.16 6.6 43.8 31 -9.2 15.5
12:00 1023 30.21 852 25.16 6.7 44.1 32 -8.9 16.1
12:05 1022 30.18 852 25.16 6.7 44 32 -8.8 16.2
12:10 1022 30.18 852 25.16 7.2 45 31 -8.7 16.3
12:15 1022 30.18 851 25.13 7 44.6 33 -8.3 17
12:20 1022 30.18 851 25.13 6.9 44.4 32 -8.8 16.1
12:25 1022 30.18 851 25.13 7.3 45.1 31 -8.6 16.6
12:30 1022 30.18 851 25.13 7.6 45.6 31 -8.5 16.6
12:35 1022 30.18 851 25.13 7.7 45.8 30 -8.9 16
12:40 1022 30.18 851 25.13 7.8 46 29 -9 15.8
12:45 1022 30.18 851 25.13 7.9 46.2 30 -8.7 16.3
12:50 1022 30.18 851 25.13 8.1 46.7 32 -7.7 18.2
12:55 1022 30.18 851 25.13 8.1 46.6 32 -7.7 18.2
13:00 1022 30.18 851 25.13 8.7 47.6 31 -7.7 18.1
13:05 1022 30.18 851 25.13 8.8 47.8 29 -8.3 17.1
13:10 1022 30.18 851 25.13 8.6 47.4 30 -8.3 17.1
13:15 1022 30.18 851 25.13 8.6 47.5 31 -7.7 18.2
13:20 1022 30.18 851 25.13 8.7 47.7 31 -7.4 18.6
13:25 1022 30.18 851 25.13 8.6 47.5 32 -7.3 18.8
13:30 1022 30.18 851 25.13 8.5 47.3 30 -8.1 17.5
13:35 1022 30.18 851 25.13 8.2 46.7 32 -7.4 18.6
13:40 1022 30.18 851 25.13 8 46.4 35 -6.4 20.5
13:45 1021 30.15 851 25.13 7.5 45.6 37 -6.1 21
13:50 1021 30.15 851 25.13 7 44.6 35 -7.3 18.9
13:55 1021 30.15 851 25.13 6.4 43.5 38 -7.1 19.3
14:00 1021 30.15 851 25.13 5.8 42.4 38 -7.6 18.3
14:05 1021 30.15 851 25.13 5.6 42.2 37 -8.1 17.5
14:10 1021 30.15 851 25.13 5.8 42.5 37 -7.7 18.2
14:15 1021 30.15 850 25.1 5.7 42.2 36 -8.2 17.2
14:20 1021 30.15 850 25.1 5.2 41.4 39 -7.5 18.4
14:25 1021 30.15 850 25.1 5.1 41.2 33 -9.9 14.2
14:30 1021 30.15 850 25.1 5.8 42.4 29 -10.8 12.5
14:35 1021 30.15 850 25.1 6.2 43.2 29 -10.7 12.8
14:40 1021 30.15 850 25.1 6.5 43.7 32 -9 15.7
14:45 1021 30.15 850 25.1 7.2 44.9 26 -11.3 11.6
14:50 1021 30.15 850 25.1 7.8 46 26 -10.5 13
14:55 1021 30.15 850 25.1 8.4 47.1 25 -10.3 13.4
15:00 1021 30.15 850 25.1 8.6 47.5 26 -10 14
15:05 1021 30.15 850 25.1 8.8 47.8 27 -9.4 15.1
15:10 1021 30.15 850 25.1 8.8 47.9 24 -10.5 13.2
15:15 1020 30.12 850 25.1 8.7 47.7 26 -9.6 14.8
15:20 1020 30.12 850 25.1 8.7 47.6 27 -9.3 15.3
15:25 1020 30.12 850 25.1 8.8 47.9 26 -9.4 15
15:30 1020 30.12 850 25.1 9 48.2 28 -8.7 16.3
15:35 1020 30.12 850 25.1 9.1 48.4 24 -10.2 13.6
15:40 1020 30.12 850 25.1 9.1 48.5 25 -9.9 14.2
15:45 1020 30.12 850 25.1 9.1 48.5 25 -9.8 14.3
15:50 1020 30.12 850 25.1 9.1 48.3 25 -9.8 14.3
15:55 1020 30.12 850 25.1 9.1 48.4 25 -9.9 14.2
16:00 1020 30.12 850 25.1 9.2 48.6 26 -9.6 14.8
16:05 1020 30.12 850 25.1 9.1 48.3 26 -9.3 15.2
16:10 1020 30.12 850 25.1 8.8 47.9 27 -9.4 15.1
16:15 1020 30.12 849 25.07 8.7 47.6 28 -8.6 16.5
16:20 1020 30.12 849 25.07 8 46.4 31 -8.3 17.1
16:25 1020 30.12 849 25.07 6.5 43.7 30 -10 14
16:30 1020 30.12 849 25.07 6.6 43.9 29 -10.1 13.9
16:35 1020 30.12 849 25.07 6.4 43.5 29 -10.3 13.5
16:40 1020 30.12 849 25.07 6.3 43.3 30 -10.3 13.5
16:45 1020 30.12 849 25.07 6.4 43.5 29 -10.3 13.5
16:50 1020 30.12 849 25.07 6.4 43.5 30 -10.1 13.8
16:55 1020 30.12 849 25.07 6.7 44 25 -12 10.4
17:00 1020 30.12 849 25.07 6.8 44.2 28 -10.6 12.9
17:05 1020 30.12 849 25.07 6.6 43.8 26 -11.6 11.2
17:10 1020 30.12 849 25.07 7.2 45 24 -12.2 10
17:15 1020 30.12 849 25.07 7.6 45.6 26 -10.9 12.3
17:20 1020 30.12 849 25.07 7.5 45.6 26 -10.9 12.4
17:25 1020 30.12 849 25.07 7.5 45.5 24 -11.6 11.1
17:30 1020 30.12 849 25.07 7.6 45.7 25 -11.4 11.5
17:35 1020 30.12 849 25.07 7.8 46 25 -11 12.2
17:40 1020 30.12 849 25.07 7.7 45.9 25 -11.1 11.9
17:45 1020 30.12 849 25.07 7.6 45.7 26 -10.5 13.1
17:50 1020 30.12 849 25.07 7.6 45.6 26 -10.9 12.4
17:55 1020 30.12 849 25.07 7.5 45.5 26 -10.9 12.3
18:00 1020 30.12 850 25.1 7.4 45.3 27 -10.5 13.1
18:05 1020 30.12 850 25.1 7.3 45.2 27 -10.4 13.3
18:10 1020 30.12 850 25.1 7.3 45.1 26 -11 12.2
18:15 1020 30.12 849 25.07 7.3 45.2 28 -9.8 14.3
18:20 1020 30.12 849 25.07 7.2 45 28 -9.9 14.1
18:25 1020 30.12 849 25.07 7.3 45.1 27 -10.3 13.5
18:30 1020 30.12 849 25.07 7.4 45.3 28 -10.1 13.7
18:35 1020 30.12 849 25.07 7.4 45.4 28 -9.8 14.3
18:40 1020 30.12 850 25.1 7.3 45.2 29 -9.7 14.6
18:45 1020 30.12 850 25.1 6.9 44.4 29 -10.1 13.8
18:50 1020 30.12 850 25.1 6.9 44.4 30 -9.4 15.1
18:55 1020 30.12 850 25.1 6.9 44.5 29 -10.1 13.8
19:00 1020 30.12 849 25.07 7 44.6 29 -9.9 14.2
19:05 1020 30.12 849 25.07 7 44.6 28 -10.3 13.4
19:10 1020 30.12 849 25.07 7.1 44.7 30 -9.3 15.3
19:15 1020 30.12 849 25.07 7 44.6 29 -9.8 14.4
19:20 1020 30.12 849 25.07 6.9 44.5 29 -9.8 14.3
19:25 1020 30.12 849 25.07 7 44.5 30 -9.5 14.8
19:30 1020 30.12 849 25.07 7 44.6 30 -9.4 15
19:35 1020 30.12 849 25.07 7.2 45 29 -9.8 14.3
19:40 1020 30.12 849 25.07 7.1 44.8 30 -9.4 15.1
19:45 1020 30.12 849 25.07 7 44.5 28 -10.3 13.5
19:50 1020 30.12 849 25.07 7.4 45.2 30 -9.3 15.2
19:55 1020 30.12 849 25.07 7.1 44.8 31 -8.8 16.2
20:00 1020 30.12 849 25.07 6.5 43.7 32 -9.1 15.6
20:05 1020 30.12 849 25.07 6 42.9 33 -9.2 15.5
20:10 1020 30.12 849 25.07 6 42.8 33 -8.9 16
20:15 1020 30.12 849 25.07 5.6 42.1 35 -8.5 16.7
20:20 1020 30.12 849 25.07 5.3 41.6 35 -8.8 16.2
20:25 1019 30.09 849 25.07 5.3 41.5 37 -8.4 16.8
20:30 1019 30.09 848 25.04 5.7 42.3 32 -9.5 14.8
20:35 1019 30.09 848 25.04 6.7 44 31 -9.4 15.1
20:40 1019 30.09 848 25.04 6.5 43.6 34 -8.2 17.3
20:45 1019 30.09 849 25.07 5.4 41.8 37 -8 17.6
20:50 1020 30.12 849 25.07 5.2 41.4 35 -9 15.9
20:55 1020 30.12 849 25.07 5.8 42.5 31 -9.9 14.2
21:00 1020 30.12 849 25.07 6.8 44.2 30 -9.8 14.4
21:05 1020 30.12 849 25.07 7.3 45.1 28 -10.2 13.6
21:10 1020 30.12 849 25.07 7.7 45.9 27 -10.1 13.8
21:15 1020 30.12 849 25.07 7.9 46.1 27 -10 14
21:20 1020 30.12 849 25.07 7.8 46 28 -9.7 14.6
21:25 1019 30.09 849 25.07 7.6 45.6 28 -9.9 14.2
21:30 1019 30.09 849 25.07 7.6 45.7 27 -10 14
21:35 1019 30.09 849 25.07 7.8 46 27 -10.1 13.8
21:40 1019 30.09 849 25.07 7.8 46 28 -9.5 14.8
21:45 1019 30.09 849 25.07 7.5 45.4 30 -9.2 15.5
21:50 1019 30.09 848 25.04 7.3 45.2 28 -9.9 14.1
21:55 1019 30.09 848 25.04 7.6 45.7 28 -9.6 14.8
22:00 1019 30.09 848 25.04 7.8 46 29 -9.4 15.2
22:05 1019 30.09 848 25.04 7.7 45.9 29 -9.2 15.4
22:10 1019 30.09 848 25.04 7.7 45.9 29 -9.2 15.4
22:15 1019 30.09 848 25.04 7.5 45.6 28 -9.8 14.4
22:20 1019 30.09 848 25.04 7.6 45.7 29 -9.4 15
22:25 1019 30.09 848 25.04 7.6 45.7 28 -9.8 14.3
22:30 1019 30.09 848 25.04 7.8 46 28 -9.6 14.8
22:35 1019 30.09 848 25.04 7.8 46 28 -9.5 14.9
22:40 1019 30.09 848 25.04 7.2 45 29 -9.5 15
22:45 1019 30.09 848 25.04 6.7 44 31 -9.2 15.4
22:50 1019 30.09 848 25.04 6.5 43.8 31 -9.4 15
22:55 1019 30.09 848 25.04 6.6 43.8 31 -9.3 15.3
23:00 1019 30.09 848 25.04 6.3 43.3 33 -9 15.9
23:05 1019 30.09 848 25.04 6.1 43 32 -9.3 15.2
23:10 1019 30.09 848 25.04 6.2 43.1 33 -8.8 16.1
23:15 1019 30.09 848 25.04 6 42.9 35 -8.5 16.8
23:20 1019 30.09 848 25.04 5.9 42.6 35 -8.4 16.9
23:25 1019 30.09 848 25.04 5.7 42.2 37 -8 17.6
23:30 1019 30.09 848 25.04 5.6 42 37 -8 17.6
23:35 1019 30.09 848 25.04 5.6 42.1 36 -8.3 17.1
23:40 1019 30.09 848 25.04 5.9 42.7 34 -8.7 16.4
23:45 1019 30.09 849 25.07 6.1 43 35 -8.2 17.2
23:50 1019 30.09 849 25.07 5.8 42.5 37 -7.6 18.3
23:55 1019 30.09 849 25.07 5.4 41.7 40 -7.2 19
24:00 1020 30.12 849 25.07 5 41 42 -6.8 19.7